Silver Ridge, Maine
Current Conditions -  °F | °C
As of 12:53 PM on Monday 26 Jan 2015 (Local Time) from KMLT Reporting Station
Clear Clear  
Wind Chill:   Ceiling: Unl
Heat Index: 11°   Visibility: 10mi
Dew Point: -7°   Wind: 5mph
Humidity: 44%   Direction: 90°E
Pressure: 30.2"   Gusts: NA
Location:  45.8047°N, 68.2984°W
Report Text: KMLT 261753Z AUTO 09004KT 10SM CLR M12/M22 A3020 RMK AO2 SLP241 T11171217 11117 21178 57003
Loading
Personal Weather Stations






























Interactive Weather Map New forecast layout! Learn more

10-Day Weather Forecast

Advertisements
Track Severe Weather on mobile